Time;durP1;ratioP1;P1;durP2;ratioP2;P2;SDS_P1;SDS_P2;PMS_P1;PMS_P2;Temp;Humidity;BMP_temperature;BMP_pressure;BME280_temperature;BME280_humidity;BME280_pressure;Samples;Min_cycle;Max_cycle;Signal;HPM_P1;HPM_P2
2022/01/28 00:01:01;;;;;;;12.60;5.68;;;;;;;-4.47;100.00;99315.97;4898694;29;20059;-51
2022/01/28 00:03:45;;;;;;;9.57;4.60;;;;;;;-4.40;100.00;99312.72;4901812;29;20109;-54
2022/01/28 00:06:30;;;;;;;7.47;4.00;;;;;;;-4.60;100.00;99318.97;4888752;29;20073;-53
2022/01/28 00:09:15;;;;;;;10.48;4.70;;;;;;;-4.53;100.00;99326.09;4874926;29;20469;-53
2022/01/28 00:11:59;;;;;;;8.23;4.32;;;;;;;-4.80;100.00;99311.44;4872924;29;20112;-54
2022/01/28 00:15:03;;;;;;;9.45;3.80;;;;;;;-4.60;100.00;99312.94;4896464;29;20486;-55
2022/01/28 00:38:44;;;;;;;9.77;4.93;;;;;;;-4.86;100.00;99281.94;4897339;29;20107;-55
2022/01/28 00:41:28;;;;;;;8.70;4.25;;;;;;;-4.91;100.00;99280.03;4898960;29;20444;-53
2022/01/28 00:44:13;;;;;;;8.20;4.50;;;;;;;-4.75;100.00;99284.00;4871406;29;20612;-57
2022/01/28 00:46:58;;;;;;;8.15;4.35;;;;;;;-4.82;100.00;99272.59;4884503;29;20152;-56
2022/01/28 00:49:43;;;;;;;8.63;3.95;;;;;;;-4.93;100.00;99282.59;4897952;29;20109;-51
2022/01/28 00:52:27;;;;;;;9.00;3.90;;;;;;;-4.73;100.00;99274.56;4901867;29;20540;-56
2022/01/28 00:55:13;;;;;;;7.18;3.67;;;;;;;-4.59;100.00;99271.59;4903134;29;20052;-54
2022/01/28 00:57:58;;;;;;;7.97;3.90;;;;;;;-4.51;100.00;99264.94;4886395;29;20135;-53
2022/01/28 01:00:42;;;;;;;7.53;3.70;;;;;;;-4.66;100.00;99253.25;4884957;29;20393;-53
2022/01/28 01:03:27;;;;;;;;;;;;;;;-4.72;100.00;99263.44;4871441;29;20052;-56
2022/01/28 01:06:12;;;;;;;10.07;4.07;;;;;;;-4.76;100.00;99262.44;4903824;29;20304;-57
2022/01/28 01:08:57;;;;;;;10.02;4.40;;;;;;;-4.69;100.00;99235.94;4898419;29;20144;-57
2022/01/28 01:11:42;;;;;;;;;;;;;;;-4.43;100.00;99254.84;4899194;29;20135;-53
2022/01/28 01:14:27;;;;;;;7.32;3.58;;;;;;;-4.59;100.00;99256.06;4893551;29;20002;-53
2022/01/28 01:17:28;;;;;;;;;;;;;;;-4.58;100.00;99254.38;4888461;29;20100;-52
2022/01/28 01:23:10;;;;;;;7.38;3.90;;;;;;;-4.87;100.00;99249.16;4898083;29;20053;-53
2022/01/28 01:28:41;;;;;;;;;;;;;;;-4.95;100.00;99247.16;4884294;29;20100;-53
2022/01/28 01:31:26;;;;;;;8.60;3.88;;;;;;;-4.87;100.00;99241.41;4903724;29;20011;-54
2022/01/28 01:34:16;;;;;;;6.85;3.90;;;;;;;-4.80;100.00;99231.28;4883889;29;20137;-54
2022/01/28 01:37:01;;;;;;;10.60;4.32;;;;;;;-4.66;100.00;99230.88;4896386;29;20051;-53
2022/01/28 01:39:46;;;;;;;;;;;;;;;-4.64;100.00;99223.16;4897134;29;20100;-54
2022/01/28 01:42:55;;;;;;;8.00;3.83;;;;;;;-4.71;100.00;99236.72;4870594;29;19929;-53
2022/01/28 01:46:13;;;;;;;13.40;5.10;;;;;;;-4.77;100.00;99219.31;4912554;29;20058;-53
2022/01/28 01:52:05;;;;;;;9.18;4.32;;;;;;;-4.52;100.00;99216.63;4938801;29;20114;-50
2022/01/28 01:54:52;;;;;;;11.70;4.68;;;;;;;-4.23;100.00;99215.81;4940221;29;20415;-54
2022/01/28 01:57:38;;;;;;;11.18;4.97;;;;;;;-4.46;100.00;99219.41;4954529;29;20539;-54
2022/01/28 02:00:23;;;;;;;13.48;5.10;;;;;;;-4.49;100.00;99221.00;4925729;29;20054;-56
2022/01/28 02:03:30;;;;;;;9.80;4.47;;;;;;;-4.84;100.00;99219.09;4939514;29;20062;-53
2022/01/28 02:06:18;;;;;;;11.52;5.22;;;;;;;-4.48;100.00;99217.63;4939702;29;20066;-53
2022/01/28 02:09:05;;;;;;;10.48;4.72;;;;;;;-4.41;100.00;99222.13;4939186;29;20249;-54
2022/01/28 02:11:50;;;;;;;13.43;4.97;;;;;;;-4.24;100.00;99226.09;4954140;29;20052;-53
2022/01/28 02:14:34;;;;;;;13.38;5.47;;;;;;;-4.19;100.00;99211.56;4953667;29;20101;-53
2022/01/28 02:17:19;;;;;;;12.48;5.60;;;;;;;-4.36;100.00;99216.25;4926657;29;20081;-50
2022/01/28 02:20:13;;;;;;;14.32;6.10;;;;;;;-4.52;100.00;99215.78;4952983;29;20070;-54
2022/01/28 02:22:58;;;;;;;19.58;6.50;;;;;;;-4.59;100.00;99203.50;4925708;29;20074;-61
2022/01/28 02:25:44;;;;;;;14.07;6.10;;;;;;;-4.46;100.00;99205.59;4925800;29;20054;-54
2022/01/28 02:28:34;;;;;;;15.77;6.28;;;;;;;-4.66;100.00;99199.84;4939340;29;20046;-51
2022/01/28 02:31:22;;;;;;;16.73;6.60;;;;;;;-4.65;100.00;99190.38;4953729;29;20049;-53
2022/01/28 02:34:10;;;;;;;16.25;7.03;;;;;;;-4.71;100.00;99188.47;4939405;29;20049;-52
2022/01/28 02:36:56;;;;;;;16.00;6.38;;;;;;;-4.62;100.00;99187.88;4907434;29;20054;-57
2022/01/28 02:39:41;;;;;;;15.82;6.63;;;;;;;-4.50;100.00;99186.53;4915859;29;20127;-54
2022/01/28 02:42:43;;;;;;;17.20;6.43;;;;;;;-4.76;100.00;99186.59;4904257;29;20050;-55
2022/01/28 02:45:34;;;;;;;17.30;7.50;;;;;;;-4.97;100.00;99186.81;4914681;29;20067;-52
2022/01/28 02:48:23;;;;;;;22.90;7.65;;;;;;;-4.82;100.00;99176.94;4914823;29;20451;-52
2022/01/28 02:51:18;;;;;;;15.55;7.65;;;;;;;-4.94;100.00;99192.09;4912014;29;20443;-54
2022/01/28 02:54:15;;;;;;;18.13;7.63;;;;;;;-4.85;100.00;99179.44;4893795;29;20054;-53
2022/01/28 02:57:04;;;;;;;15.38;7.20;;;;;;;-4.90;100.00;99170.66;4906415;29;20504;-56
2022/01/28 02:59:49;;;;;;;14.25;6.72;;;;;;;-4.86;100.00;99180.28;4926346;29;20045;-56
2022/01/28 03:02:34;;;;;;;16.63;7.32;;;;;;;-4.80;100.00;99174.41;4899484;29;20127;-53
2022/01/28 03:05:31;;;;;;;17.17;7.78;;;;;;;-4.61;100.00;99174.09;4916625;29;20081;-57
2022/01/28 03:08:16;;;;;;;16.67;7.28;;;;;;;-4.53;100.00;99178.69;4918417;29;20098;-58
2022/01/28 03:11:27;;;;;;;19.92;7.30;;;;;;;-4.43;100.00;99170.38;4932458;29;20421;-58
2022/01/28 03:19:53;;;;;;;15.25;6.78;;;;;;;-4.69;100.00;99158.38;4917806;29;20051;-56
2022/01/28 03:22:38;;;;;;;15.75;7.18;;;;;;;-4.59;100.00;99154.34;4907492;29;20051;-57
2022/01/28 03:25:23;;;;;;;12.38;5.75;;;;;;;-4.45;100.00;99146.16;4908741;29;20063;-55
2022/01/28 03:28:08;;;;;;;15.90;6.30;;;;;;;-4.39;100.00;99146.34;4885750;29;20123;-60
2022/01/28 03:30:54;;;;;;;14.50;6.35;;;;;;;-4.26;100.00;99135.50;4908531;29;20495;-54
2022/01/28 03:33:39;;;;;;;13.80;6.30;;;;;;;-4.33;100.00;99136.16;4889072;29;20418;-57
2022/01/28 03:36:24;;;;;;;19.73;7.55;;;;;;;-4.19;100.00;99131.38;4918031;29;20431;-56
2022/01/28 03:39:10;;;;;;;;;;;;;;;-4.08;100.00;99135.97;4923731;29;20428;-55
2022/01/28 03:41:54;;;;;;;16.10;7.38;;;;;;;-4.01;100.00;99155.13;4901054;29;19930;-55
2022/01/28 03:44:39;;;;;;;15.50;6.28;;;;;;;-4.06;100.00;99146.38;4918106;29;20119;-52
2022/01/28 03:47:25;;;;;;;10.43;5.63;;;;;;;-4.12;100.00;99141.91;4906622;29;20079;-54
2022/01/28 03:50:10;;;;;;;13.20;6.60;;;;;;;-4.38;100.00;99124.81;4919950;29;20074;-54
2022/01/28 03:52:54;;;;;;;13.93;6.32;;;;;;;-4.24;100.00;99133.81;4916799;29;20127;-53
2022/01/28 03:55:39;;;;;;;14.10;6.35;;;;;;;-4.03;100.00;99129.25;4890210;29;20075;-54
2022/01/28 03:58:28;;;;;;;16.55;6.40;;;;;;;-4.19;100.00;99119.31;4919689;29;20067;-54
2022/01/28 04:01:20;;;;;;;13.25;5.93;;;;;;;-4.26;100.00;99096.69;4905649;29;20062;-62
2022/01/28 04:13:10;;;;;;;10.95;5.03;;;;;;;-4.09;100.00;99110.06;4901023;29;20647;-56
2022/01/28 04:18:43;;;;;;;11.70;5.22;;;;;;;-4.32;100.00;99106.00;4922562;29;20534;-58
2022/01/28 04:21:29;;;;;;;9.05;4.93;;;;;;;-4.46;100.00;99094.38;4935184;29;20046;-55
2022/01/28 04:24:14;;;;;;;11.88;5.25;;;;;;;-4.43;100.00;99092.78;4928677;29;20177;-60
2022/01/28 04:26:59;;;;;;;10.13;5.30;;;;;;;-4.48;100.00;99107.25;4932560;29;20107;-59
2022/01/28 04:29:44;;;;;;;10.18;5.43;;;;;;;-4.53;100.00;99085.56;4923059;29;20055;-53
2022/01/28 04:32:29;;;;;;;12.65;5.45;;;;;;;-4.42;100.00;99083.28;4915311;29;20427;-56
2022/01/28 04:35:14;;;;;;;12.27;6.10;;;;;;;-4.37;100.00;99099.78;4920187;29;20078;-56
2022/01/28 04:44:08;;;;;;;12.25;5.70;;;;;;;-4.27;100.00;99102.72;4889499;29;20051;-64
2022/01/28 04:47:04;;;;;;;13.07;5.78;;;;;;;-4.19;100.00;99080.50;4877220;29;20524;-59
2022/01/28 05:10:34;;;;;;;12.25;5.40;;;;;;;-4.33;100.00;99086.09;4876583;29;20173;-55
2022/01/28 05:27:58;;;;;;;13.65;5.13;;;;;;;-3.95;100.00;99096.66;4889250;29;20095;-54
2022/01/28 05:30:42;;;;;;;16.17;5.80;;;;;;;-4.00;100.00;99072.34;4894229;29;20056;-57
2022/01/28 05:33:28;;;;;;;11.30;5.75;;;;;;;-3.73;100.00;99092.91;4903592;29;20071;-58
2022/01/28 05:36:13;;;;;;;11.65;5.15;;;;;;;-3.85;100.00;99058.91;4909173;29;20091;-54
2022/01/28 05:38:57;;;;;;;11.60;4.97;;;;;;;-3.58;100.00;99095.84;4914603;29;20079;-56
2022/01/28 05:41:42;;;;;;;10.60;5.45;;;;;;;-3.60;100.00;99077.69;4889317;29;20050;-55
2022/01/28 05:44:27;;;;;;;12.25;5.15;;;;;;;-3.62;100.00;99086.25;4912847;29;20097;-53
2022/01/28 05:47:15;;;;;;;13.55;5.00;;;;;;;-3.51;100.00;99079.63;4883006;29;20060;-53
2022/01/28 05:49:59;;;;;;;11.18;4.97;;;;;;;-3.59;100.00;99061.31;4908108;29;20090;-58
2022/01/28 05:52:44;;;;;;;12.57;5.15;;;;;;;-3.69;100.00;99081.78;4903833;29;20547;-54
2022/01/28 05:55:28;;;;;;;10.05;5.00;;;;;;;-3.90;100.00;99057.94;4885115;29;20051;-54
2022/01/28 05:58:13;;;;;;;11.48;5.57;;;;;;;-3.90;100.00;99057.94;4896157;29;20539;-55
2022/01/28 06:00:57;;;;;;;11.45;5.20;;;;;;;-3.88;100.00;99070.06;4903718;29;20070;-52
2022/01/28 06:03:44;;;;;;;16.13;5.90;;;;;;;-3.77;100.00;99076.41;4898210;29;20059;-53
2022/01/28 06:06:29;;;;;;;12.30;5.43;;;;;;;-3.70;100.00;99080.91;4907584;29;20102;-55
2022/01/28 06:09:13;;;;;;;11.50;5.43;;;;;;;-3.54;100.00;99071.78;4907215;29;20059;-53
2022/01/28 06:12:00;;;;;;;12.70;5.10;;;;;;;-3.62;100.00;99068.13;4897048;29;20083;-57
2022/01/28 06:14:44;;;;;;;9.13;4.80;;;;;;;-3.60;100.00;99046.59;4912369;29;20055;-55
2022/01/28 06:17:29;;;;;;;10.23;5.13;;;;;;;-3.33;100.00;99062.78;4908273;29;20095;-53
2022/01/28 06:20:19;;;;;;;10.00;5.20;;;;;;;-3.36;100.00;99069.63;4915629;29;20051;-52
2022/01/28 06:23:04;;;;;;;12.18;5.63;;;;;;;-3.18;100.00;99063.13;4903602;29;20059;-56
2022/01/28 06:25:50;;;;;;;12.32;5.93;;;;;;;-3.13;100.00;99065.84;4898491;29;20079;-53
2022/01/28 06:28:35;;;;;;;10.45;5.97;;;;;;;-3.09;100.00;99055.56;4883410;29;20071;-55
2022/01/28 06:31:19;;;;;;;11.05;5.30;;;;;;;-3.02;100.00;99046.19;4867008;29;20055;-55
2022/01/28 06:34:04;;;;;;;11.45;5.53;;;;;;;-3.29;100.00;99056.81;4897666;29;20100;-54
2022/01/28 06:36:49;;;;;;;11.57;5.22;;;;;;;-3.37;100.00;99053.19;4922053;29;20102;-56
2022/01/28 06:39:33;;;;;;;11.90;5.10;;;;;;;-3.28;100.00;99052.53;4917711;29;20179;-51
2022/01/28 06:42:17;;;;;;;10.27;5.15;;;;;;;-3.39;100.00;99016.03;4896323;29;20455;-51
2022/01/28 06:45:04;;;;;;;9.20;4.82;;;;;;;-3.38;100.00;99050.56;4903935;29;20160;-53
2022/01/28 06:47:48;;;;;;;12.40;5.90;;;;;;;-3.56;100.00;99056.19;4900659;29;20115;-53
2022/01/28 06:50:34;;;;;;;14.90;6.15;;;;;;;-3.68;100.00;99022.22;4904590;29;20170;-56
2022/01/28 06:53:19;;;;;;;12.13;5.88;;;;;;;-3.36;100.00;99056.66;4870609;29;20525;-56
2022/01/28 06:56:04;;;;;;;12.65;6.28;;;;;;;-3.38;100.00;99053.16;4883811;29;20111;-54
2022/01/28 06:58:49;;;;;;;14.18;6.13;;;;;;;-3.46;100.00;99042.63;4906990;29;20136;-56
2022/01/28 07:01:33;;;;;;;10.45;5.03;;;;;;;-3.63;100.00;99050.84;4887197;29;20216;-57
2022/01/28 07:04:17;;;;;;;11.75;6.13;;;;;;;-3.52;100.00;99051.97;4895443;29;20059;-55
2022/01/28 07:07:02;;;;;;;12.75;6.45;;;;;;;-3.51;100.00;99048.53;4908889;29;20531;-57
2022/01/28 07:09:51;;;;;;;19.23;8.45;;;;;;;-3.42;100.00;99048.72;4883798;29;20109;-52
2022/01/28 07:12:37;;;;;;;15.10;6.97;;;;;;;-3.41;100.00;99043.59;4877680;29;20421;-56
2022/01/28 07:15:24;;;;;;;14.07;6.57;;;;;;;-3.34;100.00;99048.09;4874012;29;20104;-55
2022/01/28 07:18:09;;;;;;;15.93;7.28;;;;;;;-3.37;100.00;99045.41;4900107;29;20087;-56
2022/01/28 07:20:54;;;;;;;15.85;6.80;;;;;;;-3.55;100.00;99042.41;4900056;29;20555;-55
2022/01/28 07:23:38;;;;;;;14.05;6.28;;;;;;;-3.62;100.00;99029.28;4889920;29;20371;-57
2022/01/28 07:26:22;;;;;;;14.23;6.82;;;;;;;-3.69;100.00;99046.38;4910615;29;20058;-59
2022/01/28 07:29:09;;;;;;;18.30;7.78;;;;;;;-3.53;100.00;99045.06;4869524;29;20107;-53
2022/01/28 07:31:55;;;;;;;16.73;7.28;;;;;;;-3.59;100.00;99045.78;4911209;29;20062;-53
2022/01/28 07:34:40;;;;;;;16.83;7.88;;;;;;;-3.66;100.00;99049.06;4914543;29;20098;-54
2022/01/28 07:37:24;;;;;;;;;;;;;;;-3.42;100.00;99064.28;4901197;29;20521;-50
2022/01/28 07:40:10;;;;;;;16.67;7.80;;;;;;;-3.51;100.00;99052.00;4905819;29;19935;-55
2022/01/28 07:42:55;;;;;;;16.65;8.52;;;;;;;-3.44;100.00;99034.88;4912490;29;20428;-57
2022/01/28 07:45:39;;;;;;;24.10;8.63;;;;;;;-3.22;100.00;99039.69;4904457;29;20553;-51
2022/01/28 07:48:26;;;;;;;18.90;8.45;;;;;;;-3.46;100.00;99029.66;4884744;29;20095;-52
2022/01/28 07:51:11;;;;;;;19.02;7.90;;;;;;;-3.15;100.00;99052.84;4909619;29;20417;-54
2022/01/28 07:53:56;;;;;;;15.95;7.97;;;;;;;-2.95;100.00;99050.66;4878245;29;20099;-53
2022/01/28 07:56:42;;;;;;;19.02;8.90;;;;;;;-3.08;100.00;99030.53;4918802;29;20135;-55
2022/01/28 07:59:30;;;;;;;15.98;7.60;;;;;;;-3.14;100.00;99045.91;4918789;29;20055;-53
2022/01/28 08:02:15;;;;;;;18.17;8.25;;;;;;;-2.98;100.00;99059.25;4876360;29;20059;-55
2022/01/28 08:05:00;;;;;;;20.80;7.13;;;;;;;-3.31;100.00;99036.91;4885432;29;20055;-57
2022/01/28 08:07:44;;;;;;;21.30;9.57;;;;;;;-3.10;100.00;99055.50;4900930;29;20623;-54
2022/01/28 08:10:29;;;;;;;19.98;9.50;;;;;;;-2.98;100.00;99054.06;4901043;29;20135;-52
2022/01/28 08:13:13;;;;;;;20.38;9.07;;;;;;;-2.85;100.00;99052.63;4895111;29;20197;-54
2022/01/28 08:15:58;;;;;;;18.17;8.77;;;;;;;-2.95;100.00;99048.97;4910439;29;20104;-59
2022/01/28 08:18:42;;;;;;;20.10;8.77;;;;;;;-2.97;100.00;99042.84;4904601;29;20059;-57
2022/01/28 08:21:27;;;;;;;19.77;8.77;;;;;;;-2.87;100.00;99054.28;4903528;29;20112;-58
2022/01/28 08:24:11;;;;;;;20.67;9.23;;;;;;;-2.73;100.00;99039.91;4899958;29;20191;-55
2022/01/28 08:26:56;;;;;;;20.48;9.27;;;;;;;-2.76;100.00;99042.44;4885752;29;20104;-56
2022/01/28 08:29:41;;;;;;;17.85;8.75;;;;;;;-2.77;100.00;99032.91;4900312;29;20112;-58
2022/01/28 08:32:27;;;;;;;22.50;9.35;;;;;;;-2.70;100.00;99033.06;4894828;29;20059;-56
2022/01/28 08:35:13;;;;;;;20.48;9.70;;;;;;;-2.64;100.00;99029.72;4902441;29;20055;-55
2022/01/28 08:37:58;;;;;;;22.75;9.75;;;;;;;-2.61;100.00;99027.19;4881803;29;20112;-53
2022/01/28 08:40:44;;;;;;;21.42;9.43;;;;;;;-2.76;100.00;99032.94;4905319;29;20443;-58
2022/01/28 08:43:29;;;;;;;24.30;10.30;;;;;;;-2.69;100.00;99024.41;4907064;29;20081;-52
2022/01/28 08:46:14;;;;;;;28.50;10.30;;;;;;;-2.66;100.00;98993.34;4882038;29;20067;-53
2022/01/28 08:48:58;;;;;;;26.40;10.65;;;;;;;-2.50;100.00;99015.31;4914697;29;20110;-55
2022/01/28 08:51:44;;;;;;;24.38;9.93;;;;;;;-2.43;100.00;98999.84;4898741;29;20468;-54
2022/01/28 08:54:30;;;;;;;26.05;10.23;;;;;;;-2.31;100.00;99013.06;4871680;29;20085;-55
2022/01/28 08:57:14;;;;;;;24.00;10.30;;;;;;;-2.43;100.00;99007.66;4908509;29;20602;-52
2022/01/28 09:00:06;;;;;;;23.42;10.90;;;;;;;-2.44;100.00;99018.00;4888985;29;20212;-56
2022/01/28 09:02:51;;;;;;;26.20;10.73;;;;;;;-2.60;100.00;99009.06;4878950;29;20055;-53
2022/01/28 09:05:35;;;;;;;23.88;10.23;;;;;;;-2.72;100.00;99007.94;4901983;29;20084;-61
2022/01/28 09:08:20;;;;;;;22.55;9.45;;;;;;;-2.88;100.00;98985.13;4907502;29;20565;-54
2022/01/28 09:12:04;;;;;;;24.40;10.70;;;;;;;-2.59;100.00;99000.41;4899844;29;20063;-53
2022/01/28 09:14:14;;;;;;;24.73;10.63;;;;;;;-2.31;100.00;99010.47;4878086;29;20137;-56
2022/01/28 09:16:59;;;;;;;24.55;11.02;;;;;;;-2.67;100.00;98985.53;4885498;29;20058;-57
2022/01/28 09:19:45;;;;;;;;;;;;;;;-2.80;100.00;99004.31;4913890;29;20120;-56
2022/01/28 09:22:36;;;;;;;25.63;9.65;;;;;;;-2.97;100.00;98998.78;4887049;29;19930;-58
2022/01/28 09:25:21;;;;;;;27.92;11.52;;;;;;;-2.81;100.00;98999.97;4889282;29;20051;-55
2022/01/28 09:28:06;;;;;;;25.85;11.90;;;;;;;-2.70;100.00;99004.53;4918954;29;20146;-58
2022/01/28 09:30:52;;;;;;;25.30;11.20;;;;;;;-2.44;100.00;99005.91;4906887;29;20060;-55
2022/01/28 09:33:37;;;;;;;22.13;9.68;;;;;;;-2.56;100.00;98990.09;4899295;29;20055;-52
2022/01/28 09:36:22;;;;;;;24.95;11.57;;;;;;;-2.51;100.00;99001.44;4911644;29;20103;-55
2022/01/28 09:39:07;;;;;;;29.63;11.23;;;;;;;-2.16;100.00;98987.38;4914390;29;20059;-54
2022/01/28 09:41:59;;;;;;;27.40;11.45;;;;;;;-2.15;100.00;98993.41;4881179;29;20055;-52
2022/01/28 09:44:44;;;;;;;26.98;11.05;;;;;;;-2.18;100.00;98981.25;4897727;29;20059;-56
2022/01/28 09:47:31;;;;;;;24.73;10.43;;;;;;;-2.05;100.00;98987.56;4908363;29;20051;-55
2022/01/28 09:50:16;;;;;;;26.77;12.05;;;;;;;-1.90;100.00;98991.25;4906690;29;20100;-57
2022/01/28 09:53:01;;;;;;;27.70;11.18;;;;;;;-2.14;100.00;98982.22;4913492;29;20485;-58
2022/01/28 09:55:47;;;;;;;26.63;11.85;;;;;;;-2.13;100.00;98986.56;4896735;29;20429;-57
2022/01/28 09:58:32;;;;;;;26.73;10.85;;;;;;;-1.79;100.00;98988.84;4896780;29;20125;-58
2022/01/28 10:01:16;;;;;;;30.02;12.43;;;;;;;-1.76;100.00;98981.97;4913335;29;20063;-56
2022/01/28 10:04:05;;;;;;;29.88;12.35;;;;;;;-1.78;100.00;98986.25;4903321;29;20062;-59
2022/01/28 10:06:50;;;;;;;28.25;11.75;;;;;;;-1.92;100.00;98955.72;4920525;29;20042;-57
2022/01/28 10:09:35;;;;;;;27.80;10.70;;;;;;;-1.79;100.00;98962.84;4914255;29;20055;-59
2022/01/28 10:12:27;;;;;;;25.63;10.75;;;;;;;-2.09;100.00;98958.03;4883837;29;20131;-57
2022/01/28 10:15:27;;;;;;;24.25;10.43;;;;;;;-1.92;100.00;98976.50;4905933;29;20052;-55
2022/01/28 10:18:12;;;;;;;30.42;11.10;;;;;;;-2.24;100.00;98947.44;4892735;29;20569;-56
2022/01/28 10:20:57;;;;;;;29.27;12.63;;;;;;;-2.03;100.00;98958.16;4884687;29;20047;-57
2022/01/28 10:23:42;;;;;;;29.48;12.77;;;;;;;-1.65;100.00;98956.16;4891861;29;20087;-56
2022/01/28 10:26:49;;;;;;;27.90;12.30;;;;;;;-1.61;100.00;98957.94;4876726;29;20055;-57
2022/01/28 10:29:41;;;;;;;29.88;12.88;;;;;;;-1.75;100.00;98955.13;4897666;29;20067;-54
2022/01/28 10:32:28;;;;;;;29.77;12.63;;;;;;;-1.49;100.00;98956.41;4900151;29;20102;-58
2022/01/28 10:35:30;;;;;;;27.60;12.00;;;;;;;-1.42;100.00;98968.63;4874269;29;20058;-56
2022/01/28 10:38:36;;;;;;;28.15;11.80;;;;;;;-1.34;100.00;98963.53;4913103;29;20140;-59
2022/01/28 10:41:23;;;;;;;27.65;12.18;;;;;;;-1.22;100.00;98958.50;4888336;29;20548;-63
2022/01/28 10:44:12;;;;;;;28.35;12.82;;;;;;;-1.10;100.00;98932.66;4897579;29;20608;-58
2022/01/28 10:47:06;;;;;;;28.35;12.35;;;;;;;-1.32;100.00;98954.91;4881827;29;20421;-57
2022/01/28 10:49:51;;;;;;;28.77;11.70;;;;;;;-1.34;100.00;98950.53;4881800;29;20144;-59
2022/01/28 10:52:35;;;;;;;28.55;12.25;;;;;;;-1.39;100.00;98945.28;4913747;29;20062;-56
2022/01/28 10:55:20;;;;;;;26.45;12.05;;;;;;;-1.26;100.00;98944.56;4898429;29;20186;-56
2022/01/28 10:58:10;;;;;;;26.37;11.83;;;;;;;-1.47;100.00;98949.50;4893579;29;20428;-53
2022/01/28 11:00:57;;;;;;;30.23;13.18;;;;;;;-1.19;100.00;98946.41;4896804;29;20319;-55
2022/01/28 11:03:43;;;;;;;31.13;12.95;;;;;;;-1.06;100.00;98937.03;4883704;29;20108;-55
2022/01/28 11:06:27;;;;;;;30.83;13.07;;;;;;;-1.24;100.00;98942.00;4894256;29;20585;-57
2022/01/28 11:09:13;;;;;;;;;;;;;;;-1.12;100.00;98927.44;4884550;29;20058;-54
2022/01/28 11:12:00;;;;;;;30.08;12.50;;;;;;;-1.03;100.00;98934.47;4889339;29;19925;-57
2022/01/28 11:14:44;;;;;;;29.52;12.82;;;;;;;-1.05;100.00;98915.38;4907209;29;20055;-57
2022/01/28 11:17:29;;;;;;;33.20;13.10;;;;;;;-0.91;100.00;98929.44;4906999;29;20066;-52
2022/01/28 11:20:19;;;;;;;31.55;13.00;;;;;;;-1.05;100.00;98934.47;4899133;29;20055;-55
2022/01/28 11:23:26;;;;;;;30.40;12.95;;;;;;;-0.83;100.00;98933.84;4896203;29;20079;-56
2022/01/28 11:26:19;;;;;;;31.67;13.98;;;;;;;-0.75;100.00;98933.94;4917060;29;20098;-56
2022/01/28 11:29:18;;;;;;;27.73;12.15;;;;;;;-0.73;100.00;98950.44;4902172;29;20059;-55
2022/01/28 11:32:13;;;;;;;32.70;12.85;;;;;;;-0.90;100.00;98936.38;4899126;29;20191;-56
2022/01/28 11:35:08;;;;;;;25.90;12.00;;;;;;;-1.02;100.00;98933.63;4916496;29;20456;-57
2022/01/28 11:38:01;;;;;;;;;;;;;;;-0.97;100.00;98931.94;4889825;29;20397;-55
2022/01/28 11:40:58;;;;;;;29.95;12.85;;;;;;;-1.00;100.00;98919.78;4901164;29;20018;-57
2022/01/28 11:43:55;;;;;;;33.33;13.80;;;;;;;-0.70;100.00;98927.91;4911777;29;20133;-57
2022/01/28 11:46:45;;;;;;;34.50;13.15;;;;;;;-0.91;100.00;98912.06;4837946;29;1353511;-60
2022/01/28 11:49:29;;;;;;;33.78;13.20;;;;;;;-1.10;100.00;98917.91;4890036;29;20142;-52
2022/01/28 11:52:21;;;;;;;33.70;13.35;;;;;;;-1.05;100.00;98929.25;4876743;29;20071;-58
2022/01/28 11:55:16;;;;;;;31.25;13.90;;;;;;;-0.86;100.00;98936.41;4881015;29;20480;-56
2022/01/28 11:58:12;;;;;;;33.15;13.35;;;;;;;-0.86;100.00;98932.94;4894062;29;20094;-58
2022/01/28 12:00:57;;;;;;;35.17;13.68;;;;;;;-1.10;100.00;98928.31;4873006;29;20100;-56
2022/01/28 12:03:42;;;;;;;34.15;14.40;;;;;;;-1.17;100.00;98923.03;4905802;29;20059;-54
2022/01/28 12:06:27;;;;;;;37.97;14.75;;;;;;;-1.13;100.00;98938.69;4914716;29;20051;-55
2022/01/28 12:09:13;;;;;;;34.22;13.63;;;;;;;-1.04;100.00;98933.59;4896772;29;20055;-58
2022/01/28 12:11:59;;;;;;;33.55;13.85;;;;;;;-1.17;100.00;98942.13;4915945;29;20055;-56
2022/01/28 12:14:50;;;;;;;31.10;12.55;;;;;;;-1.09;100.00;98934.41;4903029;29;20063;-57
2022/01/28 12:17:37;;;;;;;27.70;12.82;;;;;;;-1.20;100.00;98938.56;4898946;29;20051;-58
2022/01/28 12:20:36;;;;;;;28.90;12.57;;;;;;;-1.04;100.00;98940.50;4907074;29;20059;-60
2022/01/28 12:23:21;;;;;;;36.30;14.65;;;;;;;-1.16;100.00;98948.16;4907701;29;20051;-59
2022/01/28 12:26:06;;;;;;;32.63;13.15;;;;;;;-1.32;100.00;98949.72;4900029;29;20532;-55
2022/01/28 12:28:55;;;;;;;29.63;12.68;;;;;;;-1.26;100.00;98947.16;4912468;29;20051;-53
2022/01/28 12:31:56;;;;;;;33.55;13.60;;;;;;;-1.35;100.00;98943.56;4900129;29;20539;-54
2022/01/28 12:34:46;;;;;;;32.08;14.27;;;;;;;-1.78;100.00;98916.13;4884437;29;20056;-53
2022/01/28 12:37:37;;;;;;;31.50;13.70;;;;;;;-1.48;100.00;98933.88;4897719;29;20067;-54
2022/01/28 12:40:29;;;;;;;35.08;13.18;;;;;;;-1.46;100.00;98942.56;4917298;29;20058;-54
2022/01/28 12:43:18;;;;;;;36.33;14.10;;;;;;;-1.29;100.00;98944.56;4890532;29;20051;-51
2022/01/28 12:46:09;;;;;;;37.63;14.27;;;;;;;-1.21;100.00;98942.03;4898213;29;20074;-65
2022/01/28 12:48:55;;;;;;;36.97;15.95;;;;;;;-1.21;100.00;98948.13;4898156;29;20132;-57
2022/01/28 12:51:41;;;;;;;39.60;15.77;;;;;;;-1.31;100.00;98938.44;4903755;29;20062;-67
2022/01/28 12:54:36;;;;;;;41.78;16.17;;;;;;;-1.52;100.00;98937.28;4916593;29;20567;-52
2022/01/28 12:57:22;;;;;;;33.15;14.60;;;;;;;-1.65;100.00;98943.16;4899147;29;20103;-57
2022/01/28 13:00:07;;;;;;;36.92;15.13;;;;;;;-1.58;100.00;98947.59;4912559;29;20096;-57
2022/01/28 13:02:52;;;;;;;36.65;13.63;;;;;;;-1.39;100.00;98934.88;4889523;29;20070;-56
2022/01/28 13:05:43;;;;;;;36.13;14.90;;;;;;;-1.60;100.00;98931.09;4902400;29;20098;-59
2022/01/28 13:08:30;;;;;;;33.28;14.07;;;;;;;-1.58;100.00;98939.81;4885015;29;20119;-54
2022/01/28 13:11:15;;;;;;;39.97;15.23;;;;;;;-1.57;100.00;98931.16;4865326;29;20728;-56
2022/01/28 13:14:00;;;;;;;30.20;13.20;;;;;;;-1.70;100.00;98929.25;4902558;29;20476;-59
2022/01/28 13:17:10;;;;;;;31.48;14.05;;;;;;;-1.79;100.00;98927.38;4905165;29;20091;-57
2022/01/28 13:20:10;;;;;;;35.05;14.07;;;;;;;-1.94;100.00;98913.28;4874319;29;20500;-57
2022/01/28 13:22:56;;;;;;;37.15;14.88;;;;;;;-2.02;100.00;98907.13;4891289;29;20137;-59
2022/01/28 13:25:42;;;;;;;34.05;13.90;;;;;;;-1.93;100.00;98904.66;4905146;29;20075;-62
2022/01/28 14:00:59;;;;;;;41.00;15.45;;;;;;;-2.11;100.00;98906.94;3319919;26;20066;-59
2022/01/28 14:04:02;;;;;;;33.15;14.65;;;;;;;-2.09;100.00;98906.13;4992155;28;20089;-59
2022/01/28 14:06:47;;;;;;;38.22;15.68;;;;;;;-2.24;100.00;98892.91;4973179;28;20418;-59
2022/01/28 14:30:34;;;;;;;36.67;14.27;;;;;;;-2.25;100.00;98903.28;4944157;28;20153;-60
2022/01/28 14:33:19;;;;;;;35.47;14.25;;;;;;;-2.17;100.00;98892.13;4962358;28;20537;-60
2022/01/28 14:36:04;;;;;;;38.08;14.57;;;;;;;-2.42;100.00;98892.59;4944681;29;20538;-60
2022/01/28 14:38:49;;;;;;;34.40;14.43;;;;;;;-2.41;100.00;98898.69;4955284;29;20143;-61
2022/01/28 14:41:34;;;;;;;35.90;14.35;;;;;;;-2.36;100.00;98903.09;4959068;28;20138;-64
2022/01/28 14:47:35;;;;;;;36.67;15.57;;;;;;;-2.28;100.00;98905.81;4875930;29;20555;-64
2022/01/28 14:50:27;;;;;;;41.33;14.88;;;;;;;-2.35;100.00;98886.69;4861939;29;20181;-65
2022/01/28 14:53:11;;;;;;;39.60;15.85;;;;;;;-2.11;100.00;98906.94;4896296;29;20077;-55
2022/01/28 14:55:56;;;;;;;42.00;16.33;;;;;;;-2.01;100.00;98914.91;4897150;29;20106;-65
2022/01/28 14:58:44;;;;;;;38.45;16.25;;;;;;;-2.13;100.00;98908.66;4896822;29;20421;-57
2022/01/28 15:01:33;;;;;;;43.22;16.75;;;;;;;-2.07;100.00;98909.63;4896392;29;20071;-61
2022/01/28 15:04:19;;;;;;;33.75;14.80;;;;;;;-2.11;100.00;98909.53;4895905;29;20063;-58
2022/01/28 15:07:04;;;;;;;37.60;15.35;;;;;;;-2.28;100.00;98901.50;4880641;29;20051;-64
2022/01/28 15:09:52;;;;;;;37.15;15.50;;;;;;;-2.02;100.00;98917.50;4896554;29;20085;-60
2022/01/28 15:12:37;;;;;;;38.03;15.55;;;;;;;-1.96;100.00;98900.28;4895179;29;20051;-61
2022/01/28 15:15:22;;;;;;;37.40;15.00;;;;;;;-1.96;100.00;98874.31;4869088;29;20484;-59